sensor_id;sensor_type;location;lat;lon;timestamp;pressure;altitude;pressure_sealevel;temperature;humidity
28628;BME280;15815;46.760;19.604;2023-02-01T00:01:06;100500.94;;;4.23;80.93
28628;BME280;15815;46.760;19.604;2023-02-01T00:03:32;100485.59;;;4.14;81.13
28628;BME280;15815;46.760;19.604;2023-02-01T00:06:00;100508.84;;;4.21;80.24
28628;BME280;15815;46.760;19.604;2023-02-01T00:08:26;100504.78;;;4.19;80.30
28628;BME280;15815;46.760;19.604;2023-02-01T00:11:06;100500.84;;;4.20;79.51
28628;BME280;15815;46.760;19.604;2023-02-01T00:13:34;100494.84;;;4.18;78.82
28628;BME280;15815;46.760;19.604;2023-02-01T00:16:14;100486.50;;;4.18;78.64
28628;BME280;15815;46.760;19.604;2023-02-01T00:18:40;100490.16;;;4.22;77.95
28628;BME280;15815;46.760;19.604;2023-02-01T00:21:05;100501.56;;;4.17;78.03
28628;BME280;15815;46.760;19.604;2023-02-01T00:23:33;100493.56;;;4.15;77.34
28628;BME280;15815;46.760;19.604;2023-02-01T00:26:04;100488.09;;;4.19;77.62
28628;BME280;15815;46.760;19.604;2023-02-01T00:28:30;100495.28;;;4.20;75.92
28628;BME280;15815;46.760;19.604;2023-02-01T00:30:57;100462.69;;;4.04;76.55
28628;BME280;15815;46.760;19.604;2023-02-01T00:33:23;100492.94;;;4.22;76.57
28628;BME280;15815;46.760;19.604;2023-02-01T00:35:48;100483.25;;;4.16;76.37
28628;BME280;15815;46.760;19.604;2023-02-01T00:38:14;100471.81;;;4.05;76.99
28628;BME280;15815;46.760;19.604;2023-02-01T00:40:39;100480.47;;;4.16;77.12
28628;BME280;15815;46.760;19.604;2023-02-01T00:43:05;100459.00;;;4.00;77.05
28628;BME280;15815;46.760;19.604;2023-02-01T00:45:31;100458.47;;;4.11;76.78
28628;BME280;15815;46.760;19.604;2023-02-01T00:47:57;100453.72;;;4.11;76.69
28628;BME280;15815;46.760;19.604;2023-02-01T00:50:22;100441.59;;;4.03;76.74
28628;BME280;15815;46.760;19.604;2023-02-01T00:52:48;100467.72;;;4.15;76.47
28628;BME280;15815;46.760;19.604;2023-02-01T00:55:13;100460.09;;;4.12;76.49
28628;BME280;15815;46.760;19.604;2023-02-01T00:57:41;100471.13;;;4.24;77.51
28628;BME280;15815;46.760;19.604;2023-02-01T01:00:07;100474.09;;;4.31;77.32
28628;BME280;15815;46.760;19.604;2023-02-01T01:02:33;100480.28;;;4.24;77.41
28628;BME280;15815;46.760;19.604;2023-02-01T01:05:00;100475.72;;;4.32;77.55
28628;BME280;15815;46.760;19.604;2023-02-01T01:07:27;100486.03;;;4.31;77.50
28628;BME280;15815;46.760;19.604;2023-02-01T01:09:53;100467.47;;;4.20;77.68
28628;BME280;15815;46.760;19.604;2023-02-01T01:12:18;100487.56;;;4.29;77.16
28628;BME280;15815;46.760;19.604;2023-02-01T01:14:44;100462.06;;;4.27;76.86
28628;BME280;15815;46.760;19.604;2023-02-01T01:17:09;100473.19;;;4.27;76.37
28628;BME280;15815;46.760;19.604;2023-02-01T01:19:35;100468.97;;;4.33;76.26
28628;BME280;15815;46.760;19.604;2023-02-01T01:22:01;100476.81;;;4.43;75.54
28628;BME280;15815;46.760;19.604;2023-02-01T01:24:26;100473.22;;;4.43;76.05
28628;BME280;15815;46.760;19.604;2023-02-01T01:26:52;100469.63;;;4.42;76.77
28628;BME280;15815;46.760;19.604;2023-02-01T01:29:17;100467.38;;;4.48;76.06
28628;BME280;15815;46.760;19.604;2023-02-01T01:31:43;100457.84;;;4.49;76.40
28628;BME280;15815;46.760;19.604;2023-02-01T01:34:08;100445.47;;;4.46;75.91
28628;BME280;15815;46.760;19.604;2023-02-01T01:36:34;100446.00;;;4.52;75.44
28628;BME280;15815;46.760;19.604;2023-02-01T01:38:59;100436.41;;;4.49;75.40
28628;BME280;15815;46.760;19.604;2023-02-01T01:41:30;100431.34;;;4.55;75.22
28628;BME280;15815;46.760;19.604;2023-02-01T01:46:32;100419.69;;;4.49;74.80
28628;BME280;15815;46.760;19.604;2023-02-01T01:49:16;100418.69;;;4.57;74.36
28628;BME280;15815;46.760;19.604;2023-02-01T01:51:56;100417.16;;;4.60;74.31
28628;BME280;15815;46.760;19.604;2023-02-01T01:54:28;100407.47;;;4.54;74.25
28628;BME280;15815;46.760;19.604;2023-02-01T01:56:57;100413.50;;;4.56;73.80
28628;BME280;15815;46.760;19.604;2023-02-01T01:59:24;100411.94;;;4.58;74.27
28628;BME280;15815;46.760;19.604;2023-02-01T02:01:51;100409.91;;;4.55;73.95
28628;BME280;15815;46.760;19.604;2023-02-01T02:04:18;100403.00;;;4.49;74.19
28628;BME280;15815;46.760;19.604;2023-02-01T02:07:08;100398.59;;;4.48;73.77
28628;BME280;15815;46.760;19.604;2023-02-01T02:09:40;100390.53;;;4.43;73.52
28628;BME280;15815;46.760;19.604;2023-02-01T02:12:06;100395.09;;;4.51;73.68
28628;BME280;15815;46.760;19.604;2023-02-01T02:14:31;100385.50;;;4.49;74.11
28628;BME280;15815;46.760;19.604;2023-02-01T02:33:50;100389.00;;;4.30;74.33
28628;BME280;15815;46.760;19.604;2023-02-01T02:42:19;100392.22;;;4.32;73.29
28628;BME280;15815;46.760;19.604;2023-02-01T02:47:42;100398.53;;;4.29;73.96
28628;BME280;15815;46.760;19.604;2023-02-01T02:50:23;100400.13;;;4.30;73.46
28628;BME280;15815;46.760;19.604;2023-02-01T02:53:01;100382.19;;;4.27;73.38
28628;BME280;15815;46.760;19.604;2023-02-01T02:55:28;100377.44;;;4.28;73.52
28628;BME280;15815;46.760;19.604;2023-02-01T02:57:56;100377.16;;;4.33;73.24
28628;BME280;15815;46.760;19.604;2023-02-01T03:00:28;100379.50;;;4.31;72.59
28628;BME280;15815;46.760;19.604;2023-02-01T03:02:55;100393.13;;;4.36;71.59
28628;BME280;15815;46.760;19.604;2023-02-01T03:05:21;100393.31;;;4.43;72.43
28628;BME280;15815;46.760;19.604;2023-02-01T03:08:09;100393.31;;;4.43;71.43
28628;BME280;15815;46.760;19.604;2023-02-01T03:13:14;100394.19;;;4.47;71.30
28628;BME280;15815;46.760;19.604;2023-02-01T03:15:59;100389.72;;;4.43;70.77
28628;BME280;15815;46.760;19.604;2023-02-01T03:18:36;100394.56;;;4.46;71.00
28628;BME280;15815;46.760;19.604;2023-02-01T03:21:07;100386.66;;;4.48;70.45
28628;BME280;15815;46.760;19.604;2023-02-01T03:23:36;100399.03;;;4.50;70.03
28628;BME280;15815;46.760;19.604;2023-02-01T03:26:09;100382.63;;;4.45;70.40
28628;BME280;15815;46.760;19.604;2023-02-01T03:28:37;100387.91;;;4.50;70.82
28628;BME280;15815;46.760;19.604;2023-02-01T03:31:07;100355.63;;;4.30;70.37
28628;BME280;15815;46.760;19.604;2023-02-01T03:33:33;100373.28;;;4.38;69.74
28628;BME280;15815;46.760;19.604;2023-02-01T03:36:20;100382.09;;;4.40;69.96
28628;BME280;15815;46.760;19.604;2023-02-01T03:39:22;100375.44;;;4.28;69.77
28628;BME280;15815;46.760;19.604;2023-02-01T03:41:59;100380.22;;;4.28;69.78
28628;BME280;15815;46.760;19.604;2023-02-01T03:44:31;100385.78;;;4.28;70.27
28628;BME280;15815;46.760;19.604;2023-02-01T03:47:07;100381.94;;;4.17;70.35
28628;BME280;15815;46.760;19.604;2023-02-01T03:49:41;100370.53;;;4.06;69.88
28628;BME280;15815;46.760;19.604;2023-02-01T03:52:13;100373.13;;;3.99;69.56
28628;BME280;15815;46.760;19.604;2023-02-01T03:54:42;100366.69;;;3.95;69.98
28628;BME280;15815;46.760;19.604;2023-02-01T03:57:12;100384.97;;;3.96;70.01
28628;BME280;15815;46.760;19.604;2023-02-01T03:59:40;100392.06;;;3.93;69.84
28628;BME280;15815;46.760;19.604;2023-02-01T04:02:06;100359.31;;;3.71;69.97
28628;BME280;15815;46.760;19.604;2023-02-01T04:04:33;100382.63;;;3.82;69.98
28628;BME280;15815;46.760;19.604;2023-02-01T04:06:59;100382.53;;;3.79;70.09
28628;BME280;15815;46.760;19.604;2023-02-01T04:09:24;100356.16;;;3.57;70.32
28628;BME280;15815;46.760;19.604;2023-02-01T04:11:50;100374.28;;;3.66;70.06
28628;BME280;15815;46.760;19.604;2023-02-01T04:14:15;100387.28;;;3.62;70.39
28628;BME280;15815;46.760;19.604;2023-02-01T04:16:41;100377.59;;;3.56;70.23
28628;BME280;15815;46.760;19.604;2023-02-01T04:19:06;100358.19;;;3.44;70.14
28628;BME280;15815;46.760;19.604;2023-02-01T04:21:32;100386.16;;;3.51;70.47
28628;BME280;15815;46.760;19.604;2023-02-01T04:23:58;100381.69;;;3.47;70.33
28628;BME280;15815;46.760;19.604;2023-02-01T04:26:23;100389.31;;;3.50;71.02
28628;BME280;15815;46.760;19.604;2023-02-01T04:28:49;100387.94;;;3.44;71.08
28628;BME280;15815;46.760;19.604;2023-02-01T04:31:16;100379.34;;;3.33;71.33
28628;BME280;15815;46.760;19.604;2023-02-01T04:33:42;100393.97;;;3.46;71.09
28628;BME280;15815;46.760;19.604;2023-02-01T04:36:08;100387.41;;;3.38;71.41
28628;BME280;15815;46.760;19.604;2023-02-01T04:38:34;100391.81;;;3.39;71.32
28628;BME280;15815;46.760;19.604;2023-02-01T04:41:00;100386.25;;;3.39;71.80
28628;BME280;15815;46.760;19.604;2023-02-01T04:43:25;100384.44;;;3.31;71.78
28628;BME280;15815;46.760;19.604;2023-02-01T04:45:51;100354.78;;;3.07;71.24
28628;BME280;15815;46.760;19.604;2023-02-01T04:48:18;100387.69;;;3.21;71.86
28628;BME280;15815;46.760;19.604;2023-02-01T04:50:46;100389.66;;;3.20;72.17
28628;BME280;15815;46.760;19.604;2023-02-01T04:53:15;100392.00;;;3.18;72.18
28628;BME280;15815;46.760;19.604;2023-02-01T04:55:41;100372.72;;;3.09;72.36
28628;BME280;15815;46.760;19.604;2023-02-01T04:58:10;100374.47;;;3.02;72.28
28628;BME280;15815;46.760;19.604;2023-02-01T05:00:37;100398.50;;;3.10;72.74
28628;BME280;15815;46.760;19.604;2023-02-01T05:03:03;100383.63;;;3.02;72.71
28628;BME280;15815;46.760;19.604;2023-02-01T05:05:29;100402.44;;;3.09;72.48
28628;BME280;15815;46.760;19.604;2023-02-01T05:07:54;100388.13;;;2.95;72.39
28628;BME280;15815;46.760;19.604;2023-02-01T05:10:20;100402.94;;;2.99;72.74
28628;BME280;15815;46.760;19.604;2023-02-01T05:12:46;100400.41;;;2.94;72.67
28628;BME280;15815;46.760;19.604;2023-02-01T05:15:12;100404.34;;;2.93;72.52
28628;BME280;15815;46.760;19.604;2023-02-01T05:17:37;100410.84;;;2.85;72.97
28628;BME280;15815;46.760;19.604;2023-02-01T05:20:03;100409.69;;;2.86;73.08
28628;BME280;15815;46.760;19.604;2023-02-01T05:22:30;100417.19;;;2.85;73.07
28628;BME280;15815;46.760;19.604;2023-02-01T05:24:55;100421.50;;;2.83;73.48
28628;BME280;15815;46.760;19.604;2023-02-01T05:27:24;100420.47;;;2.75;73.53
28628;BME280;15815;46.760;19.604;2023-02-01T05:29:49;100410.75;;;2.69;73.94
28628;BME280;15815;46.760;19.604;2023-02-01T05:32:15;100414.56;;;2.64;74.31
28628;BME280;15815;46.760;19.604;2023-02-01T05:34:40;100411.69;;;2.61;74.33
28628;BME280;15815;46.760;19.604;2023-02-01T05:37:06;100416.06;;;2.62;74.24
28628;BME280;15815;46.760;19.604;2023-02-01T05:39:31;100419.19;;;2.60;73.93
28628;BME280;15815;46.760;19.604;2023-02-01T05:41:57;100423.38;;;2.54;74.35
28628;BME280;15815;46.760;19.604;2023-02-01T05:44:22;100429.63;;;2.51;74.44
28628;BME280;15815;46.760;19.604;2023-02-01T05:46:48;100439.78;;;2.59;74.40
28628;BME280;15815;46.760;19.604;2023-02-01T05:49:14;100422.91;;;2.52;74.45
28628;BME280;15815;46.760;19.604;2023-02-01T05:51:40;100439.22;;;2.54;74.29
28628;BME280;15815;46.760;19.604;2023-02-01T05:54:06;100430.31;;;2.48;74.86
28628;BME280;15815;46.760;19.604;2023-02-01T05:56:31;100443.50;;;2.51;74.76
28628;BME280;15815;46.760;19.604;2023-02-01T05:58:57;100439.56;;;2.52;74.95
28628;BME280;15815;46.760;19.604;2023-02-01T06:01:22;100410.88;;;2.36;74.77
28628;BME280;15815;46.760;19.604;2023-02-01T06:03:48;100431.47;;;2.47;74.66
28628;BME280;15815;46.760;19.604;2023-02-01T06:06:13;100432.75;;;2.50;74.60
28628;BME280;15815;46.760;19.604;2023-02-01T06:08:39;100437.94;;;2.51;74.59
28628;BME280;15815;46.760;19.604;2023-02-01T06:11:05;100427.53;;;2.48;74.63
28628;BME280;15815;46.760;19.604;2023-02-01T06:13:31;100437.94;;;2.51;74.99
28628;BME280;15815;46.760;19.604;2023-02-01T06:15:58;100425.78;;;2.43;74.69
28628;BME280;15815;46.760;19.604;2023-02-01T06:18:24;100449.97;;;2.55;74.67
28628;BME280;15815;46.760;19.604;2023-02-01T06:20:54;100436.56;;;2.57;74.56
28628;BME280;15815;46.760;19.604;2023-02-01T06:23:20;100439.56;;;2.52;74.66
28628;BME280;15815;46.760;19.604;2023-02-01T06:25:46;100414.22;;;2.41;75.09
28628;BME280;15815;46.760;19.604;2023-02-01T06:28:11;100443.13;;;2.65;74.93
28628;BME280;15815;46.760;19.604;2023-02-01T06:30:37;100426.03;;;2.75;74.23
28628;BME280;15815;46.760;19.604;2023-02-01T06:33:02;100436.88;;;3.20;74.41
28628;BME280;15815;46.760;19.604;2023-02-01T06:35:28;100428.22;;;3.50;73.36
28628;BME280;15815;46.760;19.604;2023-02-01T06:37:53;100434.16;;;3.92;73.17
28628;BME280;15815;46.760;19.604;2023-02-01T06:40:19;100444.66;;;4.14;73.42
28628;BME280;15815;46.760;19.604;2023-02-01T06:42:44;100447.19;;;4.19;73.06
28628;BME280;15815;46.760;19.604;2023-02-01T06:45:10;100451.75;;;4.43;73.84
28628;BME280;15815;46.760;19.604;2023-02-01T06:47:36;100445.06;;;4.63;73.35
28628;BME280;15815;46.760;19.604;2023-02-01T06:50:01;100453.22;;;4.88;73.66
28628;BME280;15815;46.760;19.604;2023-02-01T06:52:27;100457.59;;;5.05;73.86
28628;BME280;15815;46.760;19.604;2023-02-01T06:54:52;100468.97;;;5.15;71.60
28628;BME280;15815;46.760;19.604;2023-02-01T06:57:18;100472.22;;;5.56;71.15
28628;BME280;15815;46.760;19.604;2023-02-01T06:59:43;100465.75;;;6.10;72.97
28628;BME280;15815;46.760;19.604;2023-02-01T07:02:11;100478.44;;;7.02;72.44
28628;BME280;15815;46.760;19.604;2023-02-01T07:04:36;100457.19;;;7.54;71.70
28628;BME280;15815;46.760;19.604;2023-02-01T07:07:02;100473.00;;;8.06;70.53
28628;BME280;15815;46.760;19.604;2023-02-01T07:12:12;100482.97;;;9.54;71.37
28628;BME280;15815;46.760;19.604;2023-02-01T07:14:37;100482.34;;;9.93;70.63
28628;BME280;15815;46.760;19.604;2023-02-01T07:17:03;100494.50;;;10.40;69.82
28628;BME280;15815;46.760;19.604;2023-02-01T07:19:29;100479.66;;;10.93;70.21
28628;BME280;15815;46.760;19.604;2023-02-01T07:21:54;100470.84;;;10.98;71.18
28628;BME280;15815;46.760;19.604;2023-02-01T07:24:20;100480.38;;;11.54;69.41
28628;BME280;15815;46.760;19.604;2023-02-01T07:26:45;100490.28;;;11.94;64.29
28628;BME280;15815;46.760;19.604;2023-02-01T07:29:11;100493.50;;;12.58;68.58
28628;BME280;15815;46.760;19.604;2023-02-01T07:31:36;100485.59;;;12.91;67.19
28628;BME280;15815;46.760;19.604;2023-02-01T07:34:02;100476.13;;;13.15;63.97
28628;BME280;15815;46.760;19.604;2023-02-01T07:36:28;100475.75;;;13.51;65.37
28628;BME280;15815;46.760;19.604;2023-02-01T07:38:53;100462.78;;;13.87;64.70
28628;BME280;15815;46.760;19.604;2023-02-01T07:41:22;100485.38;;;14.48;62.43
28628;BME280;15815;46.760;19.604;2023-02-01T07:43:48;100497.63;;;14.92;64.02
28628;BME280;15815;46.760;19.604;2023-02-01T07:46:13;100485.00;;;15.20;60.21
28628;BME280;15815;46.760;19.604;2023-02-01T07:48:39;100498.94;;;15.31;59.67
28628;BME280;15815;46.760;19.604;2023-02-01T07:51:10;100498.00;;;15.61;58.93
28628;BME280;15815;46.760;19.604;2023-02-01T07:53:36;100486.16;;;15.86;55.72
28628;BME280;15815;46.760;19.604;2023-02-01T07:56:03;100491.53;;;16.00;56.32
28628;BME280;15815;46.760;19.604;2023-02-01T07:58:29;100480.31;;;16.13;56.14
28628;BME280;15815;46.760;19.604;2023-02-01T08:00:55;100503.91;;;16.62;54.80
28628;BME280;15815;46.760;19.604;2023-02-01T08:03:20;100493.31;;;16.66;54.42
28628;BME280;15815;46.760;19.604;2023-02-01T08:05:46;100513.38;;;17.08;52.47
28628;BME280;15815;46.760;19.604;2023-02-01T08:08:11;100483.84;;;16.89;51.59
28628;BME280;15815;46.760;19.604;2023-02-01T08:10:37;100486.03;;;17.30;51.27
28628;BME280;15815;46.760;19.604;2023-02-01T08:13:02;100500.47;;;17.81;50.78
28628;BME280;15815;46.760;19.604;2023-02-01T08:15:28;100512.34;;;18.05;50.45
28628;BME280;15815;46.760;19.604;2023-02-01T08:17:57;100493.97;;;18.09;47.86
28628;BME280;15815;46.760;19.604;2023-02-01T08:20:23;100500.22;;;18.30;48.22
28628;BME280;15815;46.760;19.604;2023-02-01T08:22:51;100511.81;;;18.64;44.99
28628;BME280;15815;46.760;19.604;2023-02-01T08:25:17;100505.84;;;18.97;47.30
28628;BME280;15815;46.760;19.604;2023-02-01T08:27:43;100489.78;;;19.03;46.34
28628;BME280;15815;46.760;19.604;2023-02-01T08:30:09;100500.97;;;19.32;44.66
28628;BME280;15815;46.760;19.604;2023-02-01T08:32:35;100494.00;;;19.45;44.22
28628;BME280;15815;46.760;19.604;2023-02-01T08:35:02;100515.72;;;19.87;42.96
28628;BME280;15815;46.760;19.604;2023-02-01T08:37:27;100513.81;;;20.05;42.24
28628;BME280;15815;46.760;19.604;2023-02-01T08:39:53;100500.41;;;19.93;42.34
28628;BME280;15815;46.760;19.604;2023-02-01T08:42:18;100502.16;;;20.44;41.93
28628;BME280;15815;46.760;19.604;2023-02-01T08:44:44;100504.22;;;20.43;41.58
28628;BME280;15815;46.760;19.604;2023-02-01T08:47:09;100507.22;;;18.92;39.78
28628;BME280;15815;46.760;19.604;2023-02-01T08:49:35;100505.16;;;17.42;40.05
28628;BME280;15815;46.760;19.604;2023-02-01T08:52:00;100503.88;;;16.29;40.57
28628;BME280;15815;46.760;19.604;2023-02-01T08:54:26;100514.16;;;15.64;41.50
28628;BME280;15815;46.760;19.604;2023-02-01T08:56:51;100500.66;;;14.55;41.87
28628;BME280;15815;46.760;19.604;2023-02-01T08:59:17;100513.16;;;14.27;43.71
28628;BME280;15815;46.760;19.604;2023-02-01T09:01:42;100520.56;;;13.83;44.14
28628;BME280;15815;46.760;19.604;2023-02-01T09:04:08;100504.38;;;14.17;44.24
28628;BME280;15815;46.760;19.604;2023-02-01T09:06:34;100524.34;;;14.34;45.56
28628;BME280;15815;46.760;19.604;2023-02-01T09:08:59;100538.00;;;15.20;43.98
28628;BME280;15815;46.760;19.604;2023-02-01T09:11:25;100533.66;;;16.37;43.63
28628;BME280;15815;46.760;19.604;2023-02-01T09:13:50;100533.25;;;16.75;43.75
28628;BME280;15815;46.760;19.604;2023-02-01T09:16:16;100529.34;;;17.18;43.53
28628;BME280;15815;46.760;19.604;2023-02-01T09:18:41;100544.31;;;17.96;42.75
28628;BME280;15815;46.760;19.604;2023-02-01T09:21:07;100559.28;;;18.67;42.20
28628;BME280;15815;46.760;19.604;2023-02-01T09:23:33;100533.38;;;18.36;38.15
28628;BME280;15815;46.760;19.604;2023-02-01T09:26:01;100541.47;;;19.14;40.79
28628;BME280;15815;46.760;19.604;2023-02-01T09:28:26;100516.63;;;19.27;39.19
28628;BME280;15815;46.760;19.604;2023-02-01T09:30:56;100531.56;;;19.66;37.81
28628;BME280;15815;46.760;19.604;2023-02-01T09:33:22;100519.66;;;19.80;39.60
28628;BME280;15815;46.760;19.604;2023-02-01T09:35:48;100519.03;;;20.29;39.29
28628;BME280;15815;46.760;19.604;2023-02-01T09:38:13;100509.25;;;20.61;38.19
28628;BME280;15815;46.760;19.604;2023-02-01T09:40:46;100500.75;;;20.48;34.84
28628;BME280;15815;46.760;19.604;2023-02-01T09:43:18;100519.41;;;21.11;37.44
28628;BME280;15815;46.760;19.604;2023-02-01T09:45:59;100489.63;;;21.58;36.70
28628;BME280;15815;46.760;19.604;2023-02-01T09:48:31;100480.75;;;21.38;35.64
28628;BME280;15815;46.760;19.604;2023-02-01T09:50:59;100490.94;;;20.49;36.06
28628;BME280;15815;46.760;19.604;2023-02-01T09:53:40;100465.97;;;18.59;34.90
28628;BME280;15815;46.760;19.604;2023-02-01T09:56:18;100463.66;;;17.90;36.31
28628;BME280;15815;46.760;19.604;2023-02-01T09:58:59;100470.25;;;17.13;37.11
28628;BME280;15815;46.760;19.604;2023-02-01T10:01:27;100470.97;;;16.68;38.93
28628;BME280;15815;46.760;19.604;2023-02-01T10:04:02;100455.94;;;15.99;38.53
28628;BME280;15815;46.760;19.604;2023-02-01T10:06:35;100474.78;;;15.69;39.60
28628;BME280;15815;46.760;19.604;2023-02-01T10:14:49;100467.88;;;14.30;42.48
28628;BME280;15815;46.760;19.604;2023-02-01T10:17:24;100470.63;;;14.07;42.72
28628;BME280;15815;46.760;19.604;2023-02-01T10:22:44;100455.00;;;13.30;44.79
28628;BME280;15815;46.760;19.604;2023-02-01T10:27:39;100464.19;;;12.97;45.59
28628;BME280;15815;46.760;19.604;2023-02-01T10:32:39;100451.97;;;12.66;46.60
28628;BME280;15815;46.760;19.604;2023-02-01T10:35:17;100456.19;;;12.40;47.26
28628;BME280;15815;46.760;19.604;2023-02-01T10:37:43;100456.78;;;12.14;48.59
28628;BME280;15815;46.760;19.604;2023-02-01T10:40:17;100452.00;;;12.03;48.46
28628;BME280;15815;46.760;19.604;2023-02-01T10:42:44;100442.75;;;11.99;49.16
28628;BME280;15815;46.760;19.604;2023-02-01T10:45:15;100446.00;;;11.98;49.15
28628;BME280;15815;46.760;19.604;2023-02-01T10:47:42;100442.81;;;11.92;49.77
28628;BME280;15815;46.760;19.604;2023-02-01T10:52:41;100424.03;;;11.61;50.51
28628;BME280;15815;46.760;19.604;2023-02-01T10:55:49;100437.31;;;11.57;50.61
28628;BME280;15815;46.760;19.604;2023-02-01T10:58:36;100417.28;;;11.40;52.36
28628;BME280;15815;46.760;19.604;2023-02-01T11:01:07;100394.63;;;11.69;52.43
28628;BME280;15815;46.760;19.604;2023-02-01T11:03:42;100386.38;;;12.03;51.66
28628;BME280;15815;46.760;19.604;2023-02-01T11:08:47;100377.06;;;12.17;50.88
28628;BME280;15815;46.760;19.604;2023-02-01T11:11:13;100372.31;;;12.06;51.54
28628;BME280;15815;46.760;19.604;2023-02-01T11:13:39;100379.19;;;11.98;51.63
28628;BME280;15815;46.760;19.604;2023-02-01T11:16:06;100360.78;;;11.76;51.37
28628;BME280;15815;46.760;19.604;2023-02-01T11:18:36;100379.28;;;11.77;51.96
28628;BME280;15815;46.760;19.604;2023-02-01T11:21:02;100344.00;;;11.62;51.53
28628;BME280;15815;46.760;19.604;2023-02-01T11:23:30;100362.47;;;11.66;51.96
28628;BME280;15815;46.760;19.604;2023-02-01T11:26:07;100334.91;;;11.33;52.41
28628;BME280;15815;46.760;19.604;2023-02-01T11:28:43;100356.56;;;11.39;52.03
28628;BME280;15815;46.760;19.604;2023-02-01T11:31:13;100339.75;;;11.22;52.00
28628;BME280;15815;46.760;19.604;2023-02-01T11:36:32;100345.97;;;12.27;51.70
28628;BME280;15815;46.760;19.604;2023-02-01T11:42:03;100347.75;;;12.52;50.94
28628;BME280;15815;46.760;19.604;2023-02-01T11:44:36;100358.16;;;12.14;51.59
28628;BME280;15815;46.760;19.604;2023-02-01T11:49:47;100349.53;;;11.76;50.84
28628;BME280;15815;46.760;19.604;2023-02-01T11:55:47;100326.78;;;11.45;51.30
28628;BME280;15815;46.760;19.604;2023-02-01T11:58:26;100322.06;;;11.21;51.53
28628;BME280;15815;46.760;19.604;2023-02-01T12:01:02;100320.09;;;11.14;51.87
28628;BME280;15815;46.760;19.604;2023-02-01T12:06:32;100315.81;;;10.81;51.88
28628;BME280;15815;46.760;19.604;2023-02-01T12:09:11;100315.44;;;10.72;52.20
28628;BME280;15815;46.760;19.604;2023-02-01T12:29:28;100270.13;;;10.35;56.96
28628;BME280;15815;46.760;19.604;2023-02-01T12:32:06;100267.31;;;10.45;55.93
28628;BME280;15815;46.760;19.604;2023-02-01T12:37:34;100267.75;;;10.23;55.31
28628;BME280;15815;46.760;19.604;2023-02-01T12:43:59;100260.94;;;9.91;55.83
28628;BME280;15815;46.760;19.604;2023-02-01T12:46:50;100281.78;;;9.94;56.89
28628;BME280;15815;46.760;19.604;2023-02-01T12:49:21;100262.91;;;9.77;56.35
28628;BME280;15815;46.760;19.604;2023-02-01T12:51:49;100264.94;;;9.76;56.69
28628;BME280;15815;46.760;19.604;2023-02-01T12:54:37;100273.75;;;9.78;56.22
28628;BME280;15815;46.760;19.604;2023-02-01T12:57:38;100254.47;;;9.52;56.78
28628;BME280;15815;46.760;19.604;2023-02-01T13:00:23;100278.16;;;9.62;57.45
28628;BME280;15815;46.760;19.604;2023-02-01T13:08:52;100280.13;;;9.40;59.77
28628;BME280;15815;46.760;19.604;2023-02-01T13:11:31;100278.13;;;9.37;60.33
28628;BME280;15815;46.760;19.604;2023-02-01T13:14:03;100290.94;;;9.34;60.55
28628;BME280;15815;46.760;19.604;2023-02-01T13:16:35;100287.69;;;9.25;60.84
28628;BME280;15815;46.760;19.604;2023-02-01T13:19:41;100296.06;;;9.07;61.89
28628;BME280;15815;46.760;19.604;2023-02-01T13:22:22;100309.22;;;8.96;62.68
28628;BME280;15815;46.760;19.604;2023-02-01T13:24:52;100307.16;;;8.82;63.87
28628;BME280;15815;46.760;19.604;2023-02-01T13:27:19;100312.28;;;8.70;64.61
28628;BME280;15815;46.760;19.604;2023-02-01T13:35:20;100354.22;;;8.52;65.30
28628;BME280;15815;46.760;19.604;2023-02-01T13:38:28;100351.34;;;8.45;65.56
28628;BME280;15815;46.760;19.604;2023-02-01T13:43:35;100371.16;;;8.22;67.62
28628;BME280;15815;46.760;19.604;2023-02-01T13:46:08;100379.16;;;8.23;68.52
28628;BME280;15815;46.760;19.604;2023-02-01T13:48:45;100368.59;;;8.06;69.68
28628;BME280;15815;46.760;19.604;2023-02-01T13:51:12;100373.66;;;7.93;70.41
28628;BME280;15815;46.760;19.604;2023-02-01T13:53:45;100368.34;;;7.78;71.00
28628;BME280;15815;46.760;19.604;2023-02-01T13:56:15;100370.34;;;7.77;71.55
28628;BME280;15815;46.760;19.604;2023-02-01T13:58:44;100364.59;;;7.66;71.79
28628;BME280;15815;46.760;19.604;2023-02-01T14:04:01;100358.84;;;7.49;73.57
28628;BME280;15815;46.760;19.604;2023-02-01T14:24:57;100337.72;;;7.18;76.96
28628;BME280;15815;46.760;19.604;2023-02-01T14:27:26;100336.41;;;7.11;77.06
28628;BME280;15815;46.760;19.604;2023-02-01T14:29:57;100339.91;;;7.01;77.72
28628;BME280;15815;46.760;19.604;2023-02-01T14:32:37;100350.28;;;7.01;78.69
28628;BME280;15815;46.760;19.604;2023-02-01T14:35:08;100372.06;;;6.88;79.38
28628;BME280;15815;46.760;19.604;2023-02-01T14:37:42;100375.13;;;6.79;80.29
28628;BME280;15815;46.760;19.604;2023-02-01T14:42:53;100398.78;;;6.59;80.40
28628;BME280;15815;46.760;19.604;2023-02-01T14:47:46;100391.09;;;6.53;80.20
28628;BME280;15815;46.760;19.604;2023-02-01T14:55:44;100399.69;;;6.40;82.65
28628;BME280;15815;46.760;19.604;2023-02-01T15:04:10;100385.00;;;6.20;82.45
28628;BME280;15815;46.760;19.604;2023-02-01T15:06:41;100380.03;;;6.10;82.19
28628;BME280;15815;46.760;19.604;2023-02-01T15:09:32;100380.72;;;6.04;82.98
28628;BME280;15815;46.760;19.604;2023-02-01T15:14:24;100361.22;;;5.84;82.81
28628;BME280;15815;46.760;19.604;2023-02-01T15:16:52;100360.16;;;5.70;83.26
28628;BME280;15815;46.760;19.604;2023-02-01T15:19:18;100341.41;;;5.47;83.80
28628;BME280;15815;46.760;19.604;2023-02-01T15:21:47;100352.94;;;5.46;83.02